Time,TemperatureF,DewpointF,PressureIn,WindDirection,WindDirectionDegrees,WindSpeedMPH,WindSpeedGustMPH,Humidity,HourlyPrecipIn,Conditions,Clouds,dailyrainin,SoftwareType,DateUTC
2013-04-07 00:03:00,51.3,45.1,29.67,NW,320,0.0,-999.0,69,0.00,,,0.00,Custom/Perl,2013-04-07 05:03:00,
2013-04-07 00:08:00,50.7,44.5,29.67,NW,320,0.0,-999.0,69,0.00,,,0.00,Custom/Perl,2013-04-07 05:08:00,
2013-04-07 00:13:00,50.1,44.3,29.67,NW,320,0.0,-999.0,71,0.00,,,0.00,Custom/Perl,2013-04-07 05:13:00,
2013-04-07 00:18:00,49.7,44.3,29.67,NW,320,0.0,-999.0,73,0.00,,,0.00,Custom/Perl,2013-04-07 05:18:00,
2013-04-07 00:24:00,49.7,44.3,29.67,NW,320,0.0,-999.0,73,0.00,,,0.00,Custom/Perl,2013-04-07 05:24:00,
2013-04-07 00:29:00,49.6,44.2,29.67,NW,320,0.0,-999.0,73,0.00,,,0.00,Custom/Perl,2013-04-07 05:29:00,
2013-04-07 00:34:00,49.3,43.7,29.67,NW,320,0.0,-999.0,72,0.00,,,0.00,Custom/Perl,2013-04-07 05:34:00,
2013-04-07 00:39:00,48.9,43.3,29.67,NW,320,0.0,-999.0,72,0.00,,,0.00,Custom/Perl,2013-04-07 05:39:00,
2013-04-07 00:45:00,48.3,43.3,29.67,NW,320,0.0,-999.0,75,0.00,,,0.00,Custom/Perl,2013-04-07 05:45:00,
2013-04-07 00:50:00,48.3,43.3,29.67,NW,320,0.0,-999.0,75,0.00,,,0.00,Custom/Perl,2013-04-07 05:50:00,
2013-04-07 00:55:00,48.2,43.0,29.68,NW,320,0.0,-999.0,74,0.00,,,0.00,Custom/Perl,2013-04-07 05:55:00,
2013-04-07 01:00:00,47.7,42.5,29.68,NW,320,0.0,-999.0,74,0.00,,,0.00,Custom/Perl,2013-04-07 06:00:00,
2013-04-07 01:06:00,47.3,42.3,29.68,NW,320,0.0,-999.0,75,0.00,,,0.00,Custom/Perl,2013-04-07 06:06:00,
2013-04-07 01:11:00,46.9,42.3,29.68,NW,320,0.0,-999.0,77,0.00,,,0.00,Custom/Perl,2013-04-07 06:11:00,
2013-04-07 01:17:00,46.8,42.4,29.68,NW,320,0.0,-999.0,78,0.00,,,0.00,Custom/Perl,2013-04-07 06:17:00,
2013-04-07 01:22:00,46.9,42.7,29.68,NW,320,0.0,-999.0,79,0.00,,,0.00,Custom/Perl,2013-04-07 06:22:00,
2013-04-07 01:27:00,47.0,42.6,29.68,NW,320,0.0,-999.0,78,0.00,,,0.00,Custom/Perl,2013-04-07 06:27:00,
2013-04-07 01:33:00,47.1,42.7,29.68,NW,320,0.0,-999.0,78,0.00,,,0.00,Custom/Perl,2013-04-07 06:33:00,
2013-04-07 01:38:00,47.0,42.4,29.68,NW,320,0.0,-999.0,77,0.00,,,0.00,Custom/Perl,2013-04-07 06:38:00,
2013-04-07 01:43:00,46.8,42.2,29.68,NW,320,0.0,-999.0,77,0.00,,,0.00,Custom/Perl,2013-04-07 06:43:00,
2013-04-07 01:48:00,46.3,41.5,29.68,NW,320,0.0,-999.0,76,0.00,,,0.00,Custom/Perl,2013-04-07 06:48:00,
2013-04-07 01:53:00,45.9,41.9,29.68,NW,320,0.0,-999.0,80,0.00,,,0.00,Custom/Perl,2013-04-07 06:53:00,
2013-04-07 01:59:00,45.8,41.8,29.68,NW,320,0.0,-999.0,80,0.00,,,0.00,Custom/Perl,2013-04-07 06:59:00,
2013-04-07 02:04:00,45.6,41.6,29.68,NW,320,0.0,-999.0,80,0.00,,,0.00,Custom/Perl,2013-04-07 07:04:00,
2013-04-07 02:10:00,45.5,41.3,29.68,NW,320,0.0,-999.0,79,0.00,,,0.00,Custom/Perl,2013-04-07 07:10:00,
2013-04-07 02:15:00,45.7,41.9,29.68,NW,320,0.0,-999.0,81,0.00,,,0.00,Custom/Perl,2013-04-07 07:15:00,
2013-04-07 02:20:00,45.9,42.3,29.68,NW,320,0.0,-999.0,82,0.00,,,0.00,Custom/Perl,2013-04-07 07:20:00,
2013-04-07 02:25:00,47.2,43.2,29.69,NW,320,0.0,-999.0,80,0.00,,,0.00,Custom/Perl,2013-04-07 07:25:00,
2013-04-07 02:31:00,48.1,43.7,29.68,NW,320,0.0,-999.0,78,0.00,,,0.00,Custom/Perl,2013-04-07 07:31:00,
2013-04-07 02:36:00,48.6,44.0,29.69,NW,312,0.0,-999.0,77,0.00,,,0.00,Custom/Perl,2013-04-07 07:36:00,
2013-04-07 02:41:00,48.6,43.8,29.69,NW,312,0.0,-999.0,76,0.00,,,0.00,Custom/Perl,2013-04-07 07:41:00,
2013-04-07 02:47:00,48.5,43.9,29.68,NW,312,0.0,-999.0,77,0.00,,,0.00,Custom/Perl,2013-04-07 07:47:00,
2013-04-07 02:52:00,48.5,43.9,29.68,NW,312,0.0,-999.0,77,0.00,,,0.00,Custom/Perl,2013-04-07 07:52:00,
2013-04-07 02:57:00,49.0,44.2,29.68,NW,312,0.0,-999.0,76,0.00,,,0.00,Custom/Perl,2013-04-07 07:57:00,
2013-04-07 03:02:00,49.1,44.3,29.68,NW,312,0.0,-999.0,76,0.00,,,0.00,Custom/Perl,2013-04-07 08:02:00,
2013-04-07 03:07:00,49.1,44.3,29.68,NW,312,0.0,-999.0,76,0.00,,,0.00,Custom/Perl,2013-04-07 08:07:00,
2013-04-07 03:13:00,49.0,44.2,29.68,WNW,297,0.0,-999.0,76,0.00,,,0.00,Custom/Perl,2013-04-07 08:13:00,
2013-04-07 03:18:00,48.9,43.9,29.68,WNW,297,0.0,-999.0,75,0.00,,,0.00,Custom/Perl,2013-04-07 08:18:00,
2013-04-07 03:23:00,48.7,43.9,29.68,WNW,297,0.0,-999.0,76,0.00,,,0.00,Custom/Perl,2013-04-07 08:23:00,
2013-04-07 03:28:00,48.8,44.0,29.68,WNW,297,0.0,-999.0,76,0.00,,,0.00,Custom/Perl,2013-04-07 08:28:00,
2013-04-07 03:33:00,48.4,43.0,29.67,WNW,297,0.0,-999.0,73,0.00,,,0.00,Custom/Perl,2013-04-07 08:33:00,
2013-04-07 03:39:00,47.5,42.5,29.68,WNW,297,0.0,-999.0,75,0.00,,,0.00,Custom/Perl,2013-04-07 08:39:00,
2013-04-07 03:44:00,46.7,42.3,29.68,WNW,297,0.0,-999.0,78,0.00,,,0.00,Custom/Perl,2013-04-07 08:44:00,
2013-04-07 03:49:00,46.0,41.8,29.68,WNW,297,0.0,-999.0,79,0.00,,,0.00,Custom/Perl,2013-04-07 08:49:00,
2013-04-07 03:55:00,45.4,41.4,29.68,WNW,297,0.0,-999.0,80,0.00,,,0.00,Custom/Perl,2013-04-07 08:55:00,
2013-04-07 04:00:00,44.8,40.8,29.68,WNW,297,0.0,-999.0,80,0.00,,,0.00,Custom/Perl,2013-04-07 09:00:00,
2013-04-07 04:05:00,44.2,40.4,29.68,WNW,297,0.0,-999.0,81,0.00,,,0.00,Custom/Perl,2013-04-07 09:05:00,
2013-04-07 04:10:00,43.7,40.1,29.68,WNW,297,0.0,-999.0,82,0.00,,,0.00,Custom/Perl,2013-04-07 09:10:00,
2013-04-07 04:15:00,43.3,39.9,29.68,WNW,297,0.0,-999.0,83,0.00,,,0.00,Custom/Perl,2013-04-07 09:15:00,
2013-04-07 04:21:00,42.9,39.7,29.68,WNW,297,0.0,-999.0,84,0.00,,,0.00,Custom/Perl,2013-04-07 09:21:00,
2013-04-07 04:26:00,42.6,39.6,29.68,WNW,297,0.0,-999.0,85,0.00,,,0.00,Custom/Perl,2013-04-07 09:26:00,
2013-04-07 04:31:00,42.3,39.3,29.68,WNW,297,0.0,-999.0,85,0.00,,,0.00,Custom/Perl,2013-04-07 09:31:00,
2013-04-07 04:37:00,42.1,39.3,29.68,WNW,297,0.0,-999.0,86,0.00,,,0.00,Custom/Perl,2013-04-07 09:37:00,
2013-04-07 04:42:00,41.9,38.9,29.68,WNW,297,0.0,-999.0,85,0.00,,,0.00,Custom/Perl,2013-04-07 09:42:00,
2013-04-07 04:47:00,41.6,38.6,29.68,WNW,297,0.0,-999.0,85,0.00,,,0.00,Custom/Perl,2013-04-07 09:47:00,
2013-04-07 04:53:00,41.4,38.6,29.68,WNW,297,0.0,-999.0,86,0.00,,,0.00,Custom/Perl,2013-04-07 09:53:00,
2013-04-07 04:58:00,41.2,38.4,29.68,WNW,297,0.0,-999.0,86,0.00,,,0.00,Custom/Perl,2013-04-07 09:58:00,
2013-04-07 05:03:00,40.9,38.1,29.68,WNW,297,0.0,-999.0,86,0.00,,,0.00,Custom/Perl,2013-04-07 10:03:00,
2013-04-07 05:08:00,40.8,38.0,29.67,WNW,297,0.0,-999.0,86,0.00,,,0.00,Custom/Perl,2013-04-07 10:08:00,
2013-04-07 05:13:00,40.9,38.5,29.67,WNW,297,0.0,-999.0,88,0.00,,,0.00,Custom/Perl,2013-04-07 10:13:00,
2013-04-07 05:19:00,41.1,38.9,29.68,WNW,297,0.0,-999.0,89,0.00,,,0.00,Custom/Perl,2013-04-07 10:19:00,
2013-04-07 05:24:00,41.4,39.4,29.68,WNW,297,0.0,-999.0,90,0.00,,,0.00,Custom/Perl,2013-04-07 10:24:00,
2013-04-07 05:29:00,41.7,39.7,29.68,WNW,297,0.0,-999.0,90,0.00,,,0.00,Custom/Perl,2013-04-07 10:29:00,
2013-04-07 05:34:00,41.8,39.6,29.68,WNW,297,0.0,-999.0,89,0.00,,,0.00,Custom/Perl,2013-04-07 10:34:00,
2013-04-07 05:39:00,41.7,39.5,29.68,WNW,297,0.0,-999.0,89,0.00,,,0.00,Custom/Perl,2013-04-07 10:39:00,
2013-04-07 05:45:00,41.6,39.2,29.68,WNW,297,0.0,-999.0,88,0.00,,,0.00,Custom/Perl,2013-04-07 10:45:00,
2013-04-07 05:50:00,41.5,39.1,29.68,WNW,297,0.0,-999.0,88,0.00,,,0.00,Custom/Perl,2013-04-07 10:50:00,
2013-04-07 05:55:00,41.3,38.7,29.68,WNW,297,0.0,-999.0,87,0.00,,,0.00,Custom/Perl,2013-04-07 10:55:00,
2013-04-07 06:00:00,41.2,38.6,29.68,WNW,297,0.0,-999.0,87,0.00,,,0.00,Custom/Perl,2013-04-07 11:00:00,
2013-04-07 06:05:00,41.1,38.5,29.68,WNW,297,0.0,-999.0,87,0.00,,,0.00,Custom/Perl,2013-04-07 11:05:00,
2013-04-07 06:11:00,41.0,38.4,29.68,WNW,297,0.0,-999.0,87,0.00,,,0.00,Custom/Perl,2013-04-07 11:11:00,
2013-04-07 06:16:00,41.2,39.0,29.69,WNW,297,0.0,-999.0,89,0.00,,,0.00,Custom/Perl,2013-04-07 11:16:00,
2013-04-07 06:22:00,41.6,39.6,29.69,WNW,297,0.0,-999.0,90,0.00,,,0.00,Custom/Perl,2013-04-07 11:22:00,
2013-04-07 06:27:00,42.2,40.4,29.69,WNW,297,0.0,-999.0,91,0.00,,,0.00,Custom/Perl,2013-04-07 11:27:00,
2013-04-07 06:32:00,42.7,40.7,29.69,WNW,297,0.0,-999.0,90,0.00,,,0.00,Custom/Perl,2013-04-07 11:32:00,
2013-04-07 06:38:00,42.8,40.6,29.69,WNW,297,0.0,-999.0,89,0.00,,,0.00,Custom/Perl,2013-04-07 11:38:00,
2013-04-07 06:43:00,42.7,40.3,29.69,WNW,297,0.0,-999.0,88,0.00,,,0.00,Custom/Perl,2013-04-07 11:43:00,
2013-04-07 06:48:00,42.5,39.9,29.69,WNW,297,0.0,-999.0,87,0.00,,,0.00,Custom/Perl,2013-04-07 11:48:00,
2013-04-07 06:54:00,42.3,39.7,29.69,WNW,297,0.0,-999.0,87,0.00,,,0.00,Custom/Perl,2013-04-07 11:54:00,
2013-04-07 06:59:00,42.1,39.7,29.69,WNW,297,0.0,-999.0,88,0.00,,,0.00,Custom/Perl,2013-04-07 11:59:00,
2013-04-07 07:04:00,42.0,39.6,29.69,WNW,297,0.0,-999.0,88,0.00,,,0.00,Custom/Perl,2013-04-07 12:04:00,
2013-04-07 07:10:00,41.8,39.4,29.69,WNW,297,0.0,-999.0,88,0.00,,,0.00,Custom/Perl,2013-04-07 12:10:00,
2013-04-07 07:15:00,41.7,39.1,29.70,WNW,297,0.0,-999.0,87,0.00,,,0.00,Custom/Perl,2013-04-07 12:15:00,
2013-04-07 07:20:00,41.6,39.4,29.70,WNW,297,0.0,-999.0,89,0.00,,,0.00,Custom/Perl,2013-04-07 12:20:00,
2013-04-07 07:25:00,41.8,39.8,29.70,WNW,297,0.0,-999.0,90,0.00,,,0.00,Custom/Perl,2013-04-07 12:25:00,
2013-04-07 07:31:00,42.3,40.5,29.70,WNW,297,0.0,-999.0,91,0.00,,,0.00,Custom/Perl,2013-04-07 12:31:00,
2013-04-07 07:36:00,42.8,41.0,29.70,WNW,297,0.0,-999.0,91,0.00,,,0.00,Custom/Perl,2013-04-07 12:36:00,
2013-04-07 07:41:00,43.1,41.1,29.70,WNW,297,0.0,-999.0,90,0.00,,,0.00,Custom/Perl,2013-04-07 12:41:00,
2013-04-07 07:47:00,43.4,41.4,29.70,WNW,297,0.0,-999.0,90,0.00,,,0.00,Custom/Perl,2013-04-07 12:47:00,
2013-04-07 07:52:00,43.8,41.8,29.71,WNW,297,0.0,-999.0,90,0.00,,,0.00,Custom/Perl,2013-04-07 12:52:00,
2013-04-07 07:57:00,44.3,42.3,29.71,WNW,297,0.0,-999.0,90,0.00,,,0.00,Custom/Perl,2013-04-07 12:57:00,
2013-04-07 08:02:00,45.0,42.8,29.71,WNW,297,0.0,-999.0,89,0.00,,,0.00,Custom/Perl,2013-04-07 13:02:00,
2013-04-07 08:08:00,46.0,43.6,29.71,WNW,297,0.0,-999.0,88,0.00,,,0.00,Custom/Perl,2013-04-07 13:08:00,
2013-04-07 08:13:00,47.1,44.7,29.71,WNW,297,0.0,-999.0,88,0.00,,,0.00,Custom/Perl,2013-04-07 13:13:00,
2013-04-07 08:18:00,48.5,45.3,29.71,SSW,209,0.0,-999.0,84,0.00,,,0.00,Custom/Perl,2013-04-07 13:18:00,
2013-04-07 08:23:00,49.7,46.1,29.72,SSW,207,0.0,-999.0,82,0.00,,,0.00,Custom/Perl,2013-04-07 13:23:00,
2013-04-07 08:29:00,50.7,46.9,29.72,SSW,207,0.0,-999.0,81,0.00,,,0.00,Custom/Perl,2013-04-07 13:29:00,
2013-04-07 08:34:00,51.5,47.1,29.72,SSW,207,0.0,-999.0,78,0.00,,,0.00,Custom/Perl,2013-04-07 13:34:00,
2013-04-07 08:40:00,52.2,47.8,29.72,SSW,207,0.0,-999.0,78,0.00,,,0.00,Custom/Perl,2013-04-07 13:40:00,
2013-04-07 08:45:00,52.6,48.2,29.72,SSW,207,0.0,-999.0,78,0.00,,,0.00,Custom/Perl,2013-04-07 13:45:00,
2013-04-07 08:50:00,53.1,48.3,29.72,SSE,157,0.0,-999.0,76,0.00,,,0.00,Custom/Perl,2013-04-07 13:50:00,
2013-04-07 08:55:00,53.6,48.8,29.72,SSE,158,0.0,-999.0,76,0.00,,,0.00,Custom/Perl,2013-04-07 13:55:00,
2013-04-07 09:00:00,54.0,48.8,29.72,SSE,158,0.0,-999.0,74,0.00,,,0.00,Custom/Perl,2013-04-07 14:00:00,
2013-04-07 09:05:00,54.4,49.4,29.72,SSE,158,0.0,-999.0,75,0.00,,,0.00,Custom/Perl,2013-04-07 14:05:00,
2013-04-07 09:10:00,54.9,49.5,29.72,SSE,158,0.0,-999.0,73,0.00,,,0.00,Custom/Perl,2013-04-07 14:10:00,
2013-04-07 09:16:00,55.3,49.7,29.71,SSE,157,0.0,-999.0,72,0.00,,,0.00,Custom/Perl,2013-04-07 14:16:00,
2013-04-07 09:21:00,55.8,50.0,29.72,SW,221,0.0,-999.0,71,0.00,,,0.00,Custom/Perl,2013-04-07 14:21:00,
2013-04-07 09:27:00,56.3,50.1,29.72,South,185,0.0,-999.0,69,0.00,,,0.00,Custom/Perl,2013-04-07 14:27:00,
2013-04-07 09:32:00,56.9,50.7,29.72,SSE,158,0.0,-999.0,69,0.00,,,0.00,Custom/Perl,2013-04-07 14:32:00,
2013-04-07 09:37:00,57.5,51.1,29.72,SSW,213,0.0,-999.0,68,0.00,,,0.00,Custom/Perl,2013-04-07 14:37:00,
2013-04-07 09:42:00,58.1,51.3,29.72,South,172,0.0,-999.0,66,0.00,,,0.00,Custom/Perl,2013-04-07 14:42:00,
2013-04-07 09:48:00,58.6,51.0,29.72,South,169,1.0,-999.0,62,0.00,,,0.00,Custom/Perl,2013-04-07 14:48:00,
2013-04-07 09:53:00,59.0,51.8,29.72,SW,223,2.0,-999.0,64,0.00,,,0.00,Custom/Perl,2013-04-07 14:53:00,
2013-04-07 09:58:00,59.5,51.9,29.72,SSE,161,0.0,-999.0,62,0.00,,,0.00,Custom/Perl,2013-04-07 14:58:00,
2013-04-07 10:03:00,59.9,52.3,29.72,SSE,154,0.0,-999.0,62,0.00,,,0.00,Custom/Perl,2013-04-07 15:03:00,
2013-04-07 10:09:00,60.4,53.0,29.72,SW,224,0.0,-999.0,63,0.00,,,0.00,Custom/Perl,2013-04-07 15:09:00,
2013-04-07 10:14:00,60.7,52.7,29.72,SSW,198,1.0,-999.0,60,0.00,,,0.00,Custom/Perl,2013-04-07 15:14:00,
2013-04-07 10:19:00,61.3,53.3,29.72,SSW,211,3.0,-999.0,60,0.00,,,0.00,Custom/Perl,2013-04-07 15:19:00,
2013-04-07 10:25:00,61.9,53.7,29.72,SSW,200,0.0,-999.0,59,0.00,,,0.00,Custom/Perl,2013-04-07 15:25:00,
2013-04-07 10:30:00,62.4,53.6,29.71,SW,217,2.0,-999.0,56,0.00,,,0.00,Custom/Perl,2013-04-07 15:30:00,
2013-04-07 10:35:00,62.8,54.0,29.71,South,169,0.0,-999.0,56,0.00,,,0.00,Custom/Perl,2013-04-07 15:35:00,
2013-04-07 10:41:00,63.5,55.3,29.71,WSW,252,0.0,-999.0,59,0.00,,,0.00,Custom/Perl,2013-04-07 15:41:00,
2013-04-07 10:46:00,64.4,56.2,29.71,SW,224,1.0,-999.0,59,0.00,,,0.00,Custom/Perl,2013-04-07 15:46:00,
2013-04-07 10:51:00,65.5,56.1,29.71,South,171,1.0,-999.0,53,0.00,,,0.00,Custom/Perl,2013-04-07 15:51:00,
2013-04-07 10:57:00,66.1,56.7,29.71,SSW,207,2.0,-999.0,53,0.00,,,0.00,Custom/Perl,2013-04-07 15:57:00,
2013-04-07 11:02:00,66.7,56.9,29.71,South,172,4.0,-999.0,51,0.00,,,0.00,Custom/Perl,2013-04-07 16:02:00,
2013-04-07 11:08:00,67.3,56.9,29.71,WSW,240,1.0,-999.0,48,0.00,,,0.00,Custom/Perl,2013-04-07 16:08:00,
2013-04-07 11:13:00,67.5,56.9,29.71,SSW,193,4.0,-999.0,47,0.00,,,0.00,Custom/Perl,2013-04-07 16:13:00,
2013-04-07 11:18:00,67.4,56.6,29.72,South,181,3.0,-999.0,46,0.00,,,0.00,Custom/Perl,2013-04-07 16:18:00,
2013-04-07 11:23:00,67.3,56.7,29.72,NE,51,1.0,-999.0,47,0.00,,,0.00,Custom/Perl,2013-04-07 16:23:00,
2013-04-07 11:28:00,67.3,56.9,29.72,SW,236,0.0,-999.0,48,0.00,,,0.00,Custom/Perl,2013-04-07 16:28:00,
2013-04-07 11:33:00,67.3,56.5,29.72,South,181,2.0,-999.0,46,0.00,,,0.00,Custom/Perl,2013-04-07 16:33:00,
2013-04-07 11:39:00,67.0,56.6,29.72,SSE,154,2.0,-999.0,48,0.00,,,0.00,Custom/Perl,2013-04-07 16:39:00,
2013-04-07 11:44:00,67.1,56.9,29.72,NW,313,2.0,-999.0,49,0.00,,,0.00,Custom/Perl,2013-04-07 16:44:00,
2013-04-07 11:49:00,67.4,57.2,29.72,SE,138,2.0,-999.0,49,0.00,,,0.00,Custom/Perl,2013-04-07 16:49:00,
2013-04-07 11:55:00,67.7,57.3,29.72,South,169,1.0,-999.0,48,0.00,,,0.00,Custom/Perl,2013-04-07 16:55:00,
2013-04-07 12:00:00,67.9,57.5,29.71,SSE,160,1.0,-999.0,48,0.00,,,0.00,Custom/Perl,2013-04-07 17:00:00,
2013-04-07 12:05:00,67.9,57.3,29.71,SSW,212,1.0,-999.0,47,0.00,,,0.00,Custom/Perl,2013-04-07 17:05:00,
2013-04-07 12:11:00,67.8,57.2,29.71,SW,236,2.0,-999.0,47,0.00,,,0.00,Custom/Perl,2013-04-07 17:11:00,
2013-04-07 12:16:00,67.8,57.4,29.71,SE,139,2.0,-999.0,48,0.00,,,0.00,Custom/Perl,2013-04-07 17:16:00,
2013-04-07 12:22:00,67.9,57.5,29.71,SW,221,1.0,-999.0,48,0.00,,,0.00,Custom/Perl,2013-04-07 17:22:00,
2013-04-07 12:27:00,68.2,57.8,29.71,South,181,2.0,-999.0,48,0.00,,,0.00,Custom/Perl,2013-04-07 17:27:00,
2013-04-07 12:32:00,68.5,58.1,29.70,WSW,241,0.0,-999.0,48,0.00,,,0.00,Custom/Perl,2013-04-07 17:32:00,
2013-04-07 12:38:00,68.9,58.3,29.70,SE,143,6.0,-999.0,47,0.00,,,0.00,Custom/Perl,2013-04-07 17:38:00,
2013-04-07 12:43:00,68.7,57.9,29.70,SW,222,3.0,-999.0,46,0.00,,,0.00,Custom/Perl,2013-04-07 17:43:00,
2013-04-07 12:49:00,68.6,58.0,29.69,WNW,287,1.0,-999.0,47,0.00,,,0.00,Custom/Perl,2013-04-07 17:49:00,
2013-04-07 12:54:00,68.6,58.0,29.69,SSE,155,1.0,-999.0,47,0.00,,,0.00,Custom/Perl,2013-04-07 17:54:00,
2013-04-07 12:59:00,68.8,58.4,29.68,SSW,212,0.0,-999.0,48,0.00,,,0.00,Custom/Perl,2013-04-07 17:59:00,
2013-04-07 13:04:00,68.8,58.0,29.68,SE,129,4.0,-999.0,46,0.00,,,0.00,Custom/Perl,2013-04-07 18:04:00,
2013-04-07 13:09:00,68.8,58.4,29.68,SSE,162,2.0,-999.0,48,0.00,,,0.00,Custom/Perl,2013-04-07 18:09:00,
2013-04-07 13:15:00,68.7,57.9,29.68,South,190,0.0,-999.0,46,0.00,,,0.00,Custom/Perl,2013-04-07 18:15:00,
2013-04-07 13:20:00,68.8,58.0,29.67,SSW,211,0.0,-999.0,46,0.00,,,0.00,Custom/Perl,2013-04-07 18:20:00,
2013-04-07 13:25:00,69.0,58.2,29.67,SSE,154,0.0,-999.0,46,0.00,,,0.00,Custom/Perl,2013-04-07 18:25:00,
2013-04-07 13:30:00,69.3,58.7,29.67,West,274,1.0,-999.0,47,0.00,,,0.00,Custom/Perl,2013-04-07 18:30:00,
2013-04-07 13:35:00,69.2,58.4,29.67,SSW,192,2.0,-999.0,46,0.00,,,0.00,Custom/Perl,2013-04-07 18:35:00,
2013-04-07 13:40:00,69.3,58.9,29.67,WSW,243,0.0,-999.0,48,0.00,,,0.00,Custom/Perl,2013-04-07 18:40:00,
2013-04-07 13:45:00,69.5,59.1,29.66,SE,131,1.0,-999.0,48,0.00,,,0.00,Custom/Perl,2013-04-07 18:45:00,
2013-04-07 13:50:00,69.9,59.7,29.66,WSW,253,4.0,-999.0,49,0.00,,,0.00,Custom/Perl,2013-04-07 18:50:00,
2013-04-07 13:55:00,70.1,59.7,29.66,ESE,122,2.0,-999.0,48,0.00,,,0.00,Custom/Perl,2013-04-07 18:55:00,
2013-04-07 14:01:00,70.4,59.8,29.65,SSW,202,1.0,-999.0,47,0.00,,,0.00,Custom/Perl,2013-04-07 19:01:00,
2013-04-07 14:06:00,70.8,60.2,29.65,SSE,162,3.0,-999.0,47,0.00,,,0.00,Custom/Perl,2013-04-07 19:06:00,
2013-04-07 14:11:00,71.5,60.1,29.64,WSW,238,0.0,-999.0,43,0.00,,,0.00,Custom/Perl,2013-04-07 19:11:00,
2013-04-07 14:17:00,72.1,60.5,29.64,West,266,1.0,-999.0,42,0.00,,,0.00,Custom/Perl,2013-04-07 19:17:00,
2013-04-07 14:22:00,72.7,61.1,29.63,NW,314,1.0,-999.0,42,0.00,,,0.00,Custom/Perl,2013-04-07 19:22:00,
2013-04-07 14:27:00,73.3,61.3,29.64,East,88,4.0,-999.0,40,0.00,,,0.00,Custom/Perl,2013-04-07 19:27:00,
2013-04-07 14:33:00,73.4,61.6,29.64,West,264,2.0,-999.0,41,0.00,,,0.00,Custom/Perl,2013-04-07 19:33:00,
2013-04-07 14:38:00,73.0,61.4,29.62,West,274,2.0,-999.0,42,0.00,,,0.00,Custom/Perl,2013-04-07 19:38:00,
2013-04-07 14:43:00,72.6,60.8,29.62,West,260,1.0,-999.0,41,0.00,,,0.00,Custom/Perl,2013-04-07 19:43:00,
2013-04-07 14:49:00,72.3,60.7,29.62,West,261,1.0,-999.0,42,0.00,,,0.00,Custom/Perl,2013-04-07 19:49:00,
2013-04-07 14:54:00,72.5,60.9,29.61,NW,316,2.0,-999.0,42,0.00,,,0.00,Custom/Perl,2013-04-07 19:54:00,
2013-04-07 14:59:00,73.7,62.3,29.60,WNW,289,0.0,-999.0,43,0.00,,,0.00,Custom/Perl,2013-04-07 19:59:00,
2013-04-07 15:04:00,74.6,62.8,29.61,NW,323,1.0,-999.0,41,0.00,,,0.00,Custom/Perl,2013-04-07 20:04:00,
2013-04-07 15:09:00,75.5,63.3,29.61,WSW,242,0.0,-999.0,39,0.00,,,0.00,Custom/Perl,2013-04-07 20:09:00,
2013-04-07 15:15:00,76.5,64.5,29.60,SE,143,3.0,-999.0,40,0.00,,,0.00,Custom/Perl,2013-04-07 20:15:00,
2013-04-07 15:20:00,77.0,64.8,29.61,SSW,208,3.0,-999.0,39,0.00,,,0.00,Custom/Perl,2013-04-07 20:20:00,
2013-04-07 15:25:00,77.2,64.6,29.61,SSW,196,4.0,-999.0,37,0.00,,,0.00,Custom/Perl,2013-04-07 20:25:00,
2013-04-07 15:31:00,77.0,64.0,29.61,SSW,209,8.0,-999.0,35,0.00,,,0.00,Custom/Perl,2013-04-07 20:31:00,
2013-04-07 15:36:00,76.1,63.3,29.61,SW,236,6.0,-999.0,36,0.00,,,0.00,Custom/Perl,2013-04-07 20:36:00,
2013-04-07 15:42:00,74.4,61.8,29.61,SW,217,0.0,-999.0,37,0.00,,,0.00,Custom/Perl,2013-04-07 20:42:00,
2013-04-07 15:47:00,73.6,61.8,29.61,WSW,243,1.0,-999.0,41,0.00,,,0.00,Custom/Perl,2013-04-07 20:47:00,
2013-04-07 15:52:00,72.8,61.2,29.60,WSW,257,4.0,-999.0,42,0.00,,,0.00,Custom/Perl,2013-04-07 20:52:00,
2013-04-07 15:57:00,72.2,61.0,29.61,South,188,7.0,-999.0,44,0.00,,,0.00,Custom/Perl,2013-04-07 20:57:00,
2013-04-07 16:02:00,71.8,61.0,29.60,WSW,252,0.0,-999.0,46,0.00,,,0.00,Custom/Perl,2013-04-07 21:02:00,
2013-04-07 16:07:00,71.7,61.3,29.59,NNE,20,2.0,-999.0,48,0.00,,,0.00,Custom/Perl,2013-04-07 21:07:00,
2013-04-07 16:12:00,71.6,61.4,29.59,South,177,1.0,-999.0,49,0.00,,,0.00,Custom/Perl,2013-04-07 21:12:00,
2013-04-07 16:18:00,71.4,61.4,29.58,WNW,295,1.0,-999.0,50,0.00,,,0.00,Custom/Perl,2013-04-07 21:18:00,
2013-04-07 16:23:00,71.2,61.4,29.58,WNW,300,1.0,-999.0,51,0.00,,,0.00,Custom/Perl,2013-04-07 21:23:00,
2013-04-07 16:29:00,71.0,61.4,29.58,WSW,250,0.0,-999.0,52,0.00,,,0.00,Custom/Perl,2013-04-07 21:29:00,
2013-04-07 16:34:00,70.9,61.3,29.58,NNW,333,2.0,-999.0,52,0.00,,,0.00,Custom/Perl,2013-04-07 21:34:00,
2013-04-07 16:40:00,70.9,61.3,29.57,South,190,2.0,-999.0,52,0.00,,,0.00,Custom/Perl,2013-04-07 21:40:00,
2013-04-07 16:45:00,71.1,61.7,29.57,West,259,3.0,-999.0,53,0.00,,,0.00,Custom/Perl,2013-04-07 21:45:00,
2013-04-07 16:50:00,71.3,61.9,29.57,West,271,1.0,-999.0,53,0.00,,,0.00,Custom/Perl,2013-04-07 21:50:00,
2013-04-07 16:56:00,71.2,61.8,29.56,NW,314,2.0,-999.0,53,0.00,,,0.00,Custom/Perl,2013-04-07 21:56:00,
2013-04-07 17:01:00,70.8,61.6,29.55,West,274,1.0,-999.0,54,0.00,,,0.00,Custom/Perl,2013-04-07 22:01:00,
2013-04-07 17:07:00,70.6,61.6,29.55,West,279,0.0,-999.0,55,0.00,,,0.00,Custom/Perl,2013-04-07 22:07:00,
2013-04-07 17:12:00,70.8,62.0,29.55,WSW,257,2.0,-999.0,56,0.00,,,0.00,Custom/Perl,2013-04-07 22:12:00,
2013-04-07 17:17:00,70.6,61.8,29.55,NW,311,2.0,-999.0,56,0.00,,,0.00,Custom/Perl,2013-04-07 22:17:00,
2013-04-07 17:23:00,70.2,61.2,29.55,SSE,167,2.0,-999.0,55,0.00,,,0.00,Custom/Perl,2013-04-07 22:23:00,
2013-04-07 17:28:00,69.8,61.0,29.54,West,278,1.0,-999.0,56,0.00,,,0.00,Custom/Perl,2013-04-07 22:28:00,
2013-04-07 17:33:00,69.5,61.1,29.53,SW,224,0.0,-999.0,58,0.00,,,0.00,Custom/Perl,2013-04-07 22:33:00,
2013-04-07 17:39:00,69.1,61.5,29.52,SW,226,3.0,-999.0,62,0.00,,,0.00,Custom/Perl,2013-04-07 22:39:00,
2013-04-07 17:44:00,68.4,61.2,29.52,WNW,283,1.0,-999.0,64,0.00,,,0.00,Custom/Perl,2013-04-07 22:44:00,
2013-04-07 17:49:00,67.9,60.7,29.52,West,266,1.0,-999.0,64,0.00,,,0.00,Custom/Perl,2013-04-07 22:49:00,
2013-04-07 17:54:00,67.8,60.6,29.52,West,276,2.0,-999.0,64,0.00,,,0.00,Custom/Perl,2013-04-07 22:54:00,
2013-04-07 17:59:00,67.8,60.4,29.52,SW,226,2.0,-999.0,63,0.00,,,0.00,Custom/Perl,2013-04-07 22:59:00,
2013-04-07 18:04:00,67.9,60.1,29.52,SSE,160,0.0,-999.0,61,0.00,,,0.00,Custom/Perl,2013-04-07 23:04:00,
2013-04-07 18:09:00,68.2,60.2,29.51,West,270,1.0,-999.0,60,0.00,,,0.00,Custom/Perl,2013-04-07 23:09:00,
2013-04-07 18:15:00,68.4,60.0,29.51,North,354,2.0,-999.0,58,0.00,,,0.00,Custom/Perl,2013-04-07 23:15:00,
2013-04-07 18:20:00,68.3,59.7,29.52,WSW,254,0.0,-999.0,57,0.00,,,0.00,Custom/Perl,2013-04-07 23:20:00,
2013-04-07 18:25:00,67.9,59.9,29.52,SW,219,3.0,-999.0,60,0.00,,,0.00,Custom/Perl,2013-04-07 23:25:00,
2013-04-07 18:30:00,67.3,59.3,29.52,South,191,0.0,-999.0,60,0.00,,,0.00,Custom/Perl,2013-04-07 23:30:00,
2013-04-07 18:35:00,67.3,59.3,29.52,West,270,4.0,-999.0,60,0.00,,,0.00,Custom/Perl,2013-04-07 23:35:00,
2013-04-07 18:41:00,67.3,58.9,29.52,South,172,5.0,-999.0,58,0.00,,,0.00,Custom/Perl,2013-04-07 23:41:00,
2013-04-07 18:46:00,67.0,58.6,29.52,ENE,72,4.0,-999.0,58,0.00,,,0.00,Custom/Perl,2013-04-07 23:46:00,
2013-04-07 18:51:00,66.8,58.6,29.53,WSW,245,2.0,-999.0,59,0.00,,,0.00,Custom/Perl,2013-04-07 23:51:00,
2013-04-07 18:57:00,66.6,58.4,29.52,SSE,150,2.0,-999.0,59,0.00,,,0.00,Custom/Perl,2013-04-07 23:57:00,
2013-04-07 19:02:00,65.1,58.5,29.52,NNE,33,2.0,-999.0,67,0.21,,,0.02,Custom/Perl,2013-04-08 00:02:00,
2013-04-07 19:07:00,63.0,57.6,29.52,West,260,0.0,-999.0,73,0.07,,,0.02,Custom/Perl,2013-04-08 00:07:00,
2013-04-07 19:12:00,61.8,57.0,29.51,West,274,0.0,-999.0,76,0.05,,,0.02,Custom/Perl,2013-04-08 00:12:00,
2013-04-07 19:18:00,61.3,56.7,29.51,WSW,245,0.0,-999.0,77,0.00,,,0.02,Custom/Perl,2013-04-08 00:18:00,
2013-04-07 19:23:00,61.1,56.7,29.51,South,189,1.0,-999.0,78,0.00,,,0.02,Custom/Perl,2013-04-08 00:23:00,
2013-04-07 19:29:00,61.2,56.8,29.50,WSW,245,0.0,-999.0,78,0.00,,,0.02,Custom/Perl,2013-04-08 00:29:00,
2013-04-07 19:34:00,60.9,56.7,29.51,SW,215,0.0,-999.0,79,0.00,,,0.02,Custom/Perl,2013-04-08 00:34:00,
2013-04-07 19:39:00,60.9,56.9,29.51,West,264,0.0,-999.0,80,0.00,,,0.02,Custom/Perl,2013-04-08 00:39:00,
2013-04-07 19:45:00,60.7,56.9,29.51,West,269,1.0,-999.0,81,0.00,,,0.02,Custom/Perl,2013-04-08 00:45:00,
2013-04-07 19:50:00,60.5,56.7,29.51,South,182,0.0,-999.0,81,0.00,,,0.02,Custom/Perl,2013-04-08 00:50:00,
2013-04-07 19:55:00,60.4,56.8,29.51,West,261,0.0,-999.0,82,0.00,,,0.02,Custom/Perl,2013-04-08 00:55:00,
2013-04-07 20:01:00,60.4,56.8,29.51,WNW,282,0.0,-999.0,82,0.00,,,0.02,Custom/Perl,2013-04-08 01:01:00,
2013-04-07 20:06:00,60.5,56.9,29.51,West,274,0.0,-999.0,82,0.00,,,0.02,Custom/Perl,2013-04-08 01:06:00,
2013-04-07 20:11:00,60.5,56.9,29.52,SW,233,0.0,-999.0,82,0.00,,,0.02,Custom/Perl,2013-04-08 01:11:00,
2013-04-07 20:17:00,60.4,56.8,29.52,SSW,211,0.0,-999.0,82,0.00,,,0.03,Custom/Perl,2013-04-08 01:17:00,
2013-04-07 20:22:00,60.4,57.0,29.53,SSE,156,0.0,-999.0,83,0.00,,,0.03,Custom/Perl,2013-04-08 01:22:00,
2013-04-07 20:27:00,60.2,56.8,29.54,South,189,6.0,-999.0,83,0.00,,,0.03,Custom/Perl,2013-04-08 01:27:00,
2013-04-07 20:32:00,60.1,56.9,29.54,West,270,1.0,-999.0,84,0.19,,,0.10,Custom/Perl,2013-04-08 01:32:00,
2013-04-07 20:37:00,59.7,56.7,29.54,SE,134,0.0,-999.0,85,0.32,,,0.12,Custom/Perl,2013-04-08 01:37:00,
2013-04-07 20:42:00,59.4,56.2,29.54,SW,220,2.0,-999.0,84,0.10,,,0.13,Custom/Perl,2013-04-08 01:42:00,
2013-04-07 20:48:00,59.3,56.1,29.54,South,178,0.0,-999.0,84,0.10,,,0.13,Custom/Perl,2013-04-08 01:48:00,
2013-04-07 20:53:00,59.1,55.9,29.55,South,169,2.0,-999.0,84,0.05,,,0.13,Custom/Perl,2013-04-08 01:53:00,
2013-04-07 20:58:00,59.0,56.2,29.55,SSE,150,1.0,-999.0,86,0.04,,,0.13,Custom/Perl,2013-04-08 01:58:00,
2013-04-07 21:03:00,58.7,55.9,29.55,SSW,192,1.0,-999.0,86,0.00,,,0.13,Custom/Perl,2013-04-08 02:03:00,
2013-04-07 21:09:00,58.5,55.9,29.55,South,174,4.0,-999.0,87,0.00,,,0.13,Custom/Perl,2013-04-08 02:09:00,
2013-04-07 21:14:00,58.4,56.0,29.55,WSW,241,1.0,-999.0,88,0.00,,,0.13,Custom/Perl,2013-04-08 02:14:00,
2013-04-07 21:20:00,58.4,56.0,29.55,SSW,194,0.0,-999.0,88,0.00,,,0.13,Custom/Perl,2013-04-08 02:20:00,
2013-04-07 21:25:00,58.4,56.2,29.55,South,171,4.0,-999.0,89,0.00,,,0.13,Custom/Perl,2013-04-08 02:25:00,
2013-04-07 21:30:00,58.3,56.1,29.55,SSW,207,0.0,-999.0,89,0.00,,,0.13,Custom/Perl,2013-04-08 02:30:00,
2013-04-07 21:35:00,58.3,56.1,29.54,SSW,207,1.0,-999.0,89,0.00,,,0.13,Custom/Perl,2013-04-08 02:35:00,
2013-04-07 21:41:00,58.4,56.2,29.54,South,173,1.0,-999.0,89,0.00,,,0.13,Custom/Perl,2013-04-08 02:41:00,
2013-04-07 21:46:00,58.4,56.2,29.54,WSW,246,0.0,-999.0,89,0.00,,,0.13,Custom/Perl,2013-04-08 02:46:00,
2013-04-07 21:51:00,58.6,56.4,29.54,WSW,257,1.0,-999.0,89,0.00,,,0.13,Custom/Perl,2013-04-08 02:51:00,
2013-04-07 21:56:00,58.7,56.5,29.55,SSE,167,3.0,-999.0,89,0.00,,,0.13,Custom/Perl,2013-04-08 02:56:00,
2013-04-07 22:01:00,58.8,56.6,29.55,West,259,1.0,-999.0,89,0.00,,,0.13,Custom/Perl,2013-04-08 03:01:00,
2013-04-07 22:07:00,58.8,56.6,29.55,South,178,2.0,-999.0,89,0.00,,,0.13,Custom/Perl,2013-04-08 03:07:00,
2013-04-07 22:12:00,58.8,56.6,29.55,South,187,3.0,-999.0,89,0.00,,,0.13,Custom/Perl,2013-04-08 03:12:00,
2013-04-07 22:17:00,58.8,56.8,29.55,SW,217,4.0,-999.0,90,0.00,,,0.13,Custom/Perl,2013-04-08 03:17:00,
2013-04-07 22:22:00,58.9,56.9,29.55,South,174,1.0,-999.0,90,0.00,,,0.13,Custom/Perl,2013-04-08 03:22:00,
2013-04-07 22:28:00,59.0,57.0,29.55,South,172,1.0,-999.0,90,0.00,,,0.13,Custom/Perl,2013-04-08 03:28:00,
2013-04-07 22:33:00,59.0,57.2,29.55,SSW,210,1.0,-999.0,91,0.00,,,0.13,Custom/Perl,2013-04-08 03:33:00,
2013-04-07 22:38:00,59.0,57.2,29.55,South,179,4.0,-999.0,91,0.00,,,0.13,Custom/Perl,2013-04-08 03:38:00,
2013-04-07 22:44:00,59.1,57.3,29.55,SSE,167,1.0,-999.0,91,0.00,,,0.13,Custom/Perl,2013-04-08 03:44:00,
2013-04-07 22:49:00,59.2,57.6,29.55,South,186,3.0,-999.0,92,0.00,,,0.13,Custom/Perl,2013-04-08 03:49:00,
2013-04-07 22:55:00,59.3,57.7,29.55,SSE,167,5.0,-999.0,92,0.00,,,0.13,Custom/Perl,2013-04-08 03:55:00,
2013-04-07 23:00:00,59.3,57.7,29.55,SSE,165,0.0,-999.0,92,0.00,,,0.13,Custom/Perl,2013-04-08 04:00:00,
2013-04-07 23:01:00,59.3,57.7,29.55,SW,231,3.0,-999.0,92,0.00,,,0.13,Custom/Perl,2013-04-08 04:01:00,
2013-04-07 23:06:00,59.5,57.9,29.55,SSE,164,5.0,-999.0,92,0.00,,,0.13,Custom/Perl,2013-04-08 04:06:00,
2013-04-07 23:08:00,59.6,58.0,29.55,WSW,240,8.0,-999.0,92,0.00,,,0.13,Custom/Perl,2013-04-08 04:08:00,
2013-04-07 23:13:00,59.7,58.1,29.54,SE,128,5.0,-999.0,92,0.00,,,0.13,Custom/Perl,2013-04-08 04:13:00,
2013-04-07 23:19:00,59.8,58.2,29.55,WSW,255,0.0,-999.0,92,0.00,,,0.13,Custom/Perl,2013-04-08 04:19:00,
2013-04-07 23:24:00,59.8,58.2,29.55,SW,217,3.0,-999.0,92,0.00,,,0.13,Custom/Perl,2013-04-08 04:24:00,
2013-04-07 23:29:00,60.0,58.4,29.55,SSE,148,8.0,-999.0,92,0.00,,,0.13,Custom/Perl,2013-04-08 04:29:00,
2013-04-07 23:35:00,60.3,58.7,29.55,SSW,211,7.0,-999.0,92,0.00,,,0.13,Custom/Perl,2013-04-08 04:35:00,
2013-04-07 23:40:00,60.5,58.9,29.55,SE,133,9.0,-999.0,92,0.00,,,0.13,Custom/Perl,2013-04-08 04:40:00,
2013-04-07 23:45:00,60.7,58.9,29.54,ESE,106,6.0,-999.0,91,0.00,,,0.13,Custom/Perl,2013-04-08 04:45:00,
2013-04-07 23:51:00,60.6,58.8,29.54,SSW,192,2.0,-999.0,91,0.00,,,0.13,Custom/Perl,2013-04-08 04:51:00,
2013-04-07 23:57:00,60.7,58.9,29.54,SSW,196,6.0,-999.0,91,0.00,,,0.13,Custom/Perl,2013-04-08 04:57:00,